Porthmadog, United Kingdom
Current Conditions -  °F | °C
As of 4:50 PM on Thursday 30 Oct 2014 (Local Time) from EGOV Reporting Station
Overcast Overcast  
Wind Chill: 59°   Ceiling: 1200
Heat Index: 59°   Visibility: 6mi
Dew Point: 59°   Wind: 17mph
Humidity: 100%   Direction: 170°S
Pressure: 29.88"   Gusts: NA
Location:  52.93°N, 4.13°W
Report Text: EGOV 301650Z 17015KT 9999 BKN012 OVC045 15/15 Q1012 GRN NOSIG
Loading
Personal Weather Stations






























Interactive Weather Map
Tropical Storm Tracking
New forecast layout! Learn more

10-Day Weather Forecast

Advertisements
Track Severe Weather on mobile